Time;durP1;ratioP1;P1;durP2;ratioP2;P2;SDS_P1;SDS_P2;PMS_P1;PMS_P2;Temp;Humidity;BMP_temperature;BMP_pressure;BME280_temperature;BME280_humidity;BME280_pressure;Samples;Min_cycle;Max_cycle;Signal;HPM_P1;HPM_P2
2023/01/25 00:01:31;;;;;;;11.13;8.00;;;8.60;99.90;;;;;;5090671;28;20194;-73
2023/01/25 00:03:58;;;;;;;8.77;7.57;;;8.70;99.90;;;;;;5072731;28;20273;-72
2023/01/25 00:06:27;;;;;;;10.17;7.70;;;8.60;99.90;;;;;;5082172;28;20662;-73
2023/01/25 00:09:01;;;;;;;11.33;8.03;;;8.60;99.90;;;;;;5083308;28;20194;-73
2023/01/25 00:11:30;;;;;;;9.10;7.67;;;8.60;99.90;;;;;;5090523;28;20200;-73
2023/01/25 00:13:56;;;;;;;9.73;7.67;;;8.70;99.90;;;;;;5081564;28;20210;-72
2023/01/25 00:16:25;;;;;;;8.40;7.17;;;8.70;99.90;;;;;;5086611;28;20263;-73
2023/01/25 00:18:57;;;;;;;9.97;7.20;;;8.70;99.90;;;;;;5081588;28;20762;-73
2023/01/25 00:21:28;;;;;;;10.27;7.70;;;8.70;99.90;;;;;;5080315;28;20601;-73
2023/01/25 00:24:02;;;;;;;10.17;8.17;;;8.70;99.90;;;;;;5074029;28;20208;-73
2023/01/25 00:26:36;;;;;;;9.53;7.33;;;8.70;99.90;;;;;;5099869;28;20206;-73
2023/01/25 00:29:11;;;;;;;8.90;6.90;;;8.70;99.90;;;;;;5080033;28;20195;-72
2023/01/25 00:32:33;;;;;;;9.43;7.50;;;8.60;99.90;;;;;;5076115;28;20274;-73
2023/01/25 00:35:01;;;;;;;8.47;7.00;;;8.60;99.90;;;;;;5073747;28;20310;-73
2023/01/25 00:37:45;;;;;;;7.97;6.40;;;8.50;99.90;;;;;;5090462;28;20837;-73
2023/01/25 00:40:18;;;;;;;9.57;6.73;;;8.40;99.90;;;;;;5082631;28;20186;-72
2023/01/25 00:42:54;;;;;;;8.13;6.43;;;8.30;99.90;;;;;;5078444;28;20193;-73
2023/01/25 00:45:22;;;;;;;9.73;6.50;;;8.20;99.90;;;;;;5073767;28;20199;-73
2023/01/25 00:47:48;;;;;;;10.93;6.10;;;8.20;99.90;;;;;;5070907;28;20261;-72
2023/01/25 00:50:27;;;;;;;9.43;6.70;;;8.20;99.90;;;;;;5077188;28;20197;-73
2023/01/25 00:52:53;;;;;;;10.33;6.07;;;8.20;99.90;;;;;;5077182;28;20533;-73
2023/01/25 00:55:29;;;;;;;8.07;6.30;;;8.30;99.90;;;;;;5076913;28;20804;-72
2023/01/25 00:57:56;;;;;;;8.73;6.07;;;8.30;99.90;;;;;;5089447;28;20216;-73
2023/01/25 01:00:25;;;;;;;7.80;6.10;;;8.20;99.90;;;;;;5092731;28;20603;-73
2023/01/25 01:02:53;;;;;;;7.00;5.70;;;8.20;99.90;;;;;;5078746;28;20190;-73
2023/01/25 01:05:28;;;;;;;7.50;5.80;;;8.20;99.90;;;;;;5075921;28;20608;-73
2023/01/25 01:08:01;;;;;;;9.57;6.03;;;8.10;99.90;;;;;;5100016;28;20288;-72
2023/01/25 01:10:33;;;;;;;6.97;5.70;;;8.10;99.90;;;;;;5075725;28;20282;-73
2023/01/25 01:13:04;;;;;;;7.70;6.00;;;8.10;99.90;;;;;;5057986;28;20186;-73
2023/01/25 01:15:30;;;;;;;7.17;5.77;;;8.10;99.90;;;;;;5072311;28;20227;-73
2023/01/25 01:18:01;;;;;;;8.73;5.77;;;8.10;99.90;;;;;;5084931;28;20190;-73
2023/01/25 01:20:36;;;;;;;6.53;5.77;;;8.00;99.90;;;;;;5074501;28;20705;-72
2023/01/25 01:23:02;;;;;;;9.77;5.93;;;7.90;99.90;;;;;;5076866;28;20202;-72
2023/01/25 01:25:28;;;;;;;7.27;5.00;;;7.90;99.90;;;;;;5088502;28;20202;-73
2023/01/25 01:27:55;;;;;;;6.57;5.43;;;7.90;99.90;;;;;;5080115;28;20193;-73
2023/01/25 01:30:24;;;;;;;6.60;5.30;;;7.90;99.90;;;;;;5079960;28;20323;-72
2023/01/25 01:32:51;;;;;;;7.27;4.57;;;7.80;99.90;;;;;;5071542;28;20748;-73
2023/01/25 01:35:23;;;;;;;6.37;5.20;;;7.80;99.90;;;;;;5081588;28;20195;-73
2023/01/25 01:37:49;;;;;;;6.50;5.50;;;7.70;99.90;;;;;;5092629;28;20182;-73
2023/01/25 01:40:20;;;;;;;7.80;5.87;;;7.80;99.90;;;;;;5094190;28;20185;-73
2023/01/25 01:43:03;;;;;;;6.77;5.10;;;7.70;99.90;;;;;;5085853;28;20849;-73
2023/01/25 01:46:21;;;;;;;7.13;5.73;;;7.70;99.90;;;;;;5073643;28;20206;-73
2023/01/25 01:49:08;;;;;;;7.33;5.50;;;7.60;99.90;;;;;;5076679;28;20498;-72
2023/01/25 01:52:17;;;;;;;7.53;5.70;;;7.60;99.90;;;;;;5084589;28;20546;-73
2023/01/25 01:55:09;;;;;;;9.97;5.80;;;7.70;99.90;;;;;;5078555;28;20666;-73
2023/01/25 01:57:50;;;;;;;9.47;6.47;;;7.70;99.90;;;;;;5074524;28;20667;-73
2023/01/25 02:00:38;;;;;;;7.07;5.83;;;7.70;99.90;;;;;;5085718;28;20601;-72
2023/01/25 02:03:08;;;;;;;10.47;6.13;;;7.70;99.90;;;;;;5074555;28;20247;-73
2023/01/25 02:06:17;;;;;;;8.53;5.93;;;7.70;99.90;;;;;;5079287;28;20195;-73
2023/01/25 02:08:52;;;;;;;7.23;5.70;;;7.60;99.90;;;;;;5068430;28;20190;-73
2023/01/25 02:11:25;;;;;;;8.53;6.10;;;7.60;99.90;;;;;;5091400;28;20614;-72
2023/01/25 02:13:59;;;;;;;7.73;5.50;;;7.60;99.90;;;;;;5082338;28;20248;-73
2023/01/25 02:16:41;;;;;;;8.20;6.10;;;7.60;99.90;;;;;;5075128;28;20201;-72
2023/01/25 02:19:31;;;;;;;7.77;6.13;;;7.60;99.90;;;;;;5080000;28;20217;-73
2023/01/25 02:22:06;;;;;;;9.03;6.00;;;7.60;99.90;;;;;;5078590;28;20213;-73
2023/01/25 02:24:41;;;;;;;7.27;5.13;;;7.60;99.90;;;;;;5085963;28;20840;-73
2023/01/25 02:27:08;;;;;;;7.37;5.67;;;7.60;99.90;;;;;;5087004;28;20196;-73
2023/01/25 02:29:40;;;;;;;8.10;5.53;;;7.60;99.90;;;;;;5087322;28;20749;-73
2023/01/25 02:32:08;;;;;;;7.77;5.87;;;7.60;99.90;;;;;;5069793;28;20613;-73
2023/01/25 02:34:40;;;;;;;7.47;5.73;;;7.70;99.90;;;;;;5073778;28;20207;-73
2023/01/25 02:37:17;;;;;;;6.90;5.73;;;7.70;99.90;;;;;;5073373;28;20182;-73
2023/01/25 02:39:47;;;;;;;8.83;5.70;;;7.80;99.90;;;;;;5080090;28;20190;-73
2023/01/25 02:42:19;;;;;;;7.10;5.37;;;7.80;99.90;;;;;;5093663;28;20190;-73
2023/01/25 02:44:50;;;;;;;8.63;5.40;;;7.80;99.90;;;;;;5092763;28;20190;-72
2023/01/25 02:47:25;;;;;;;7.33;5.63;;;7.80;99.90;;;;;;5066685;28;20190;-73
2023/01/25 02:49:51;;;;;;;7.67;5.37;;;7.80;99.90;;;;;;5086560;28;20228;-72
2023/01/25 02:52:18;;;;;;;7.27;5.50;;;7.80;99.90;;;;;;5078784;28;20952;-73
2023/01/25 02:54:45;;;;;;;6.90;5.40;;;7.80;99.90;;;;;;5078681;28;20563;-73
2023/01/25 02:57:19;;;;;;;8.27;5.40;;;7.80;99.90;;;;;;5081966;28;20179;-72
2023/01/25 02:59:46;;;;;;;7.57;5.90;;;7.70;99.90;;;;;;5084353;28;20178;-72
2023/01/25 03:02:12;;;;;;;6.77;5.37;;;7.60;99.90;;;;;;5092621;28;20181;-72
2023/01/25 03:04:39;;;;;;;8.43;5.13;;;7.60;99.90;;;;;;5081182;28;20228;-72
2023/01/25 03:07:05;;;;;;;8.33;5.20;;;7.60;99.90;;;;;;5068785;28;21089;-72
2023/01/25 03:09:38;;;;;;;5.77;4.90;;;7.60;99.90;;;;;;5077852;28;20209;-72
2023/01/25 03:12:07;;;;;;;6.87;5.17;;;7.50;99.90;;;;;;5073897;28;20221;-72
2023/01/25 03:14:45;;;;;;;8.67;5.63;;;7.50;99.90;;;;;;5057743;28;20195;-72
2023/01/25 03:17:30;;;;;;;;;;;;;;;;;;;;;
2023/01/25 03:20:00;;;;;;;7.57;5.30;;;7.50;99.90;;;;;;5077983;28;20181;-72
2023/01/25 03:22:26;;;;;;;9.37;5.33;;;7.50;99.90;;;;;;5080833;28;20186;-73
2023/01/25 03:24:56;;;;;;;6.07;5.17;;;7.50;99.90;;;;;;5080093;28;20190;-72
2023/01/25 03:27:22;;;;;;;5.90;4.50;;;7.60;99.90;;;;;;5083350;28;20191;-72
2023/01/25 03:30:00;;;;;;;8.83;5.20;;;7.60;99.90;;;;;;5077588;28;20544;-72
2023/01/25 03:32:28;;;;;;;6.57;5.10;;;7.70;99.90;;;;;;5088254;28;20719;-72
2023/01/25 03:34:58;;;;;;;7.43;5.27;;;7.70;99.90;;;;;;5075463;28;20731;-72
2023/01/25 03:37:30;;;;;;;7.20;5.20;;;7.70;99.90;;;;;;5076362;28;20301;-72
2023/01/25 03:40:13;;;;;;;7.13;5.10;;;7.70;99.90;;;;;;5079807;28;20174;-72
2023/01/25 03:42:43;;;;;;;7.93;4.80;;;7.70;99.90;;;;;;5084553;28;20177;-72
2023/01/25 03:45:17;;;;;;;6.27;5.00;;;7.70;99.90;;;;;;5070662;28;20881;-72
2023/01/25 03:47:43;;;;;;;8.03;5.50;;;7.70;99.90;;;;;;5077849;28;20722;-72
2023/01/25 03:50:15;;;;;;;6.93;4.90;;;7.70;99.90;;;;;;5074857;28;20557;-72
2023/01/25 03:52:57;;;;;;;6.97;4.90;;;7.70;99.90;;;;;;5083751;28;20784;-72
2023/01/25 03:55:33;;;;;;;;;;;;;;;;;;;;;
2023/01/25 03:58:03;;;;;;;7.37;5.10;;;7.60;99.90;;;;;;5086751;28;20269;-72
2023/01/25 04:00:36;;;;;;;8.07;5.13;;;7.60;99.90;;;;;;5080250;28;20310;-72
2023/01/25 04:03:05;;;;;;;10.33;5.57;;;7.70;99.90;;;;;;5068866;28;20191;-72
2023/01/25 04:05:43;;;;;;;;;;;;;;;;;;;;;
2023/01/25 04:08:24;;;;;;;6.87;4.90;;;7.80;99.90;;;;;;5081527;28;20193;-72
2023/01/25 04:11:07;;;;;;;7.30;4.67;;;7.90;99.90;;;;;;5080207;28;20683;-72
2023/01/25 04:13:37;;;;;;;5.83;4.90;;;7.90;99.90;;;;;;5066175;28;20270;-73
2023/01/25 04:16:05;;;;;;;6.43;4.90;;;7.90;99.90;;;;;;5084678;28;20209;-73
2023/01/25 04:18:34;;;;;;;9.37;5.20;;;7.90;99.90;;;;;;5080666;28;20178;-72
2023/01/25 04:21:07;;;;;;;5.67;4.20;;;7.90;99.90;;;;;;5074812;28;20193;-72
2023/01/25 04:23:33;;;;;;;9.07;4.83;;;7.90;99.90;;;;;;5081191;28;20186;-72
2023/01/25 04:26:14;;;;;;;8.00;4.57;;;7.90;99.90;;;;;;5090227;28;20320;-72
2023/01/25 04:28:51;;;;;;;5.43;4.57;;;7.80;99.90;;;;;;5077228;28;20259;-72
2023/01/25 04:31:33;;;;;;;8.23;5.50;;;7.70;99.90;;;;;;5078332;28;20220;-72
2023/01/25 04:34:00;;;;;;;7.70;5.17;;;7.70;99.90;;;;;;5084898;28;20265;-72
2023/01/25 04:36:31;;;;;;;10.80;5.50;;;7.80;99.90;;;;;;5069520;28;20243;-72
2023/01/25 04:39:03;;;;;;;6.57;5.07;;;7.90;99.90;;;;;;5084573;28;20182;-72
2023/01/25 04:41:37;;;;;;;8.63;4.67;;;7.90;99.90;;;;;;5078014;28;20367;-72
2023/01/25 04:44:04;;;;;;;13.93;4.77;;;7.90;99.90;;;;;;5085214;28;20190;-72
2023/01/25 04:46:31;;;;;;;5.43;4.60;;;8.00;99.90;;;;;;5087885;28;20266;-72
2023/01/25 04:48:57;;;;;;;8.10;4.40;;;8.00;99.90;;;;;;5079956;28;20185;-72
2023/01/25 04:51:25;;;;;;;7.70;4.40;;;8.00;99.90;;;;;;5061921;28;20272;-72
2023/01/25 04:54:00;;;;;;;5.20;4.23;;;8.00;99.90;;;;;;5085720;28;20178;-72
2023/01/25 04:56:30;;;;;;;6.43;4.70;;;8.10;99.90;;;;;;5075843;28;20186;-72
2023/01/25 04:58:59;;;;;;;8.33;4.87;;;8.10;99.90;;;;;;5077014;28;20239;-72
2023/01/25 05:01:35;;;;;;;6.47;4.40;;;8.10;99.90;;;;;;5088098;28;20711;-72
2023/01/25 05:04:11;;;;;;;6.03;4.47;;;8.10;99.90;;;;;;5080051;28;20194;-72
2023/01/25 05:06:37;;;;;;;7.07;4.93;;;8.20;99.90;;;;;;5094081;28;20250;-72
2023/01/25 05:09:10;;;;;;;6.13;4.60;;;8.20;99.90;;;;;;5087642;28;20281;-72
2023/01/25 05:11:40;;;;;;;6.83;4.33;;;8.30;99.90;;;;;;5073956;28;20543;-72
2023/01/25 05:14:16;;;;;;;6.10;4.70;;;8.30;99.90;;;;;;5073196;28;20229;-72
2023/01/25 05:16:47;;;;;;;8.17;4.20;;;8.30;99.90;;;;;;5096240;27;20196;-72
2023/01/25 05:19:21;;;;;;;7.50;4.37;;;8.30;99.90;;;;;;5084714;28;20179;-72
2023/01/25 05:21:57;;;;;;;6.37;4.50;;;8.30;99.90;;;;;;5082693;28;20177;-72
2023/01/25 05:24:30;;;;;;;6.33;4.47;;;8.30;99.90;;;;;;5078722;28;20220;-72
2023/01/25 05:27:04;;;;;;;6.63;4.53;;;8.30;99.90;;;;;;5085216;28;20191;-72
2023/01/25 05:29:46;;;;;;;6.13;4.27;;;8.30;99.90;;;;;;5072013;28;20189;-72
2023/01/25 05:32:19;;;;;;;6.60;4.33;;;8.30;99.90;;;;;;5087122;28;20497;-72
2023/01/25 05:34:46;;;;;;;5.93;4.43;;;8.30;99.90;;;;;;5082146;28;20212;-72
2023/01/25 05:37:19;;;;;;;6.50;4.50;;;8.30;99.90;;;;;;5088667;28;20220;-72
2023/01/25 05:39:47;;;;;;;9.10;5.23;;;8.30;99.90;;;;;;5085748;28;20206;-72
2023/01/25 05:42:22;;;;;;;8.13;4.60;;;8.40;99.90;;;;;;5082290;28;20206;-72
2023/01/25 05:44:48;;;;;;;9.00;4.90;;;8.40;99.90;;;;;;5082240;28;20527;-72
2023/01/25 05:47:19;;;;;;;6.97;4.43;;;8.40;99.90;;;;;;5081006;28;20193;-72
2023/01/25 05:49:47;;;;;;;6.30;4.83;;;8.40;99.90;;;;;;5081408;28;20238;-72
2023/01/25 05:52:16;;;;;;;9.03;4.90;;;8.40;99.90;;;;;;5086540;28;20183;-72
2023/01/25 05:54:45;;;;;;;7.07;4.97;;;8.40;99.90;;;;;;5087756;28;20203;-72
2023/01/25 05:57:14;;;;;;;7.90;4.67;;;8.40;99.90;;;;;;5080799;28;20261;-72
2023/01/25 05:59:49;;;;;;;7.53;4.80;;;8.40;99.90;;;;;;5072068;28;20743;-72
2023/01/25 06:02:20;;;;;;;5.77;4.40;;;8.40;99.90;;;;;;5074949;28;20209;-72
2023/01/25 06:04:54;;;;;;;7.80;5.27;;;8.40;99.90;;;;;;5072476;28;20179;-72
2023/01/25 06:07:35;;;;;;;6.67;4.77;;;8.40;99.90;;;;;;5079801;28;20972;-72
2023/01/25 06:10:06;;;;;;;7.13;5.20;;;8.50;99.90;;;;;;5076149;28;20201;-72
2023/01/25 06:12:38;;;;;;;6.30;5.37;;;8.60;99.90;;;;;;5093050;28;20836;-72
2023/01/25 06:15:10;;;;;;;8.50;5.87;;;8.60;99.90;;;;;;5075050;28;20445;-72
2023/01/25 06:17:37;;;;;;;7.73;5.30;;;8.70;99.90;;;;;;5079467;28;20681;-72
2023/01/25 06:20:12;;;;;;;8.23;5.50;;;8.80;99.90;;;;;;5078169;28;20191;-72
2023/01/25 06:22:41;;;;;;;7.80;5.73;;;8.80;99.90;;;;;;5086472;28;20297;-72
2023/01/25 06:25:16;;;;;;;7.90;5.60;;;8.90;99.90;;;;;;5085177;28;20201;-72
2023/01/25 06:27:45;;;;;;;7.53;5.43;;;9.00;99.90;;;;;;5088561;28;20201;-72
2023/01/25 06:30:26;;;;;;;7.23;5.40;;;9.10;99.90;;;;;;5085516;28;20236;-72
2023/01/25 06:33:02;;;;;;;8.50;5.20;;;9.10;99.90;;;;;;5080299;28;20178;-73
2023/01/25 06:35:39;;;;;;;7.47;5.37;;;9.20;99.90;;;;;;5082431;28;20739;-72
2023/01/25 06:38:05;;;;;;;7.77;5.27;;;9.30;99.90;;;;;;5092565;28;20189;-72
2023/01/25 06:40:32;;;;;;;6.60;5.27;;;9.40;99.90;;;;;;5076203;28;20181;-72
2023/01/25 06:43:17;;;;;;;7.43;5.53;;;9.50;99.90;;;;;;5101139;27;20191;-72
2023/01/25 06:45:45;;;;;;;9.97;5.70;;;9.60;99.90;;;;;;5087915;28;20288;-72
2023/01/25 06:48:12;;;;;;;6.30;5.33;;;9.70;99.90;;;;;;5069077;28;20197;-72
2023/01/25 06:50:40;;;;;;;8.37;5.70;;;9.70;99.90;;;;;;5094976;28;20943;-72
2023/01/25 06:53:09;;;;;;;7.67;5.90;;;9.80;99.90;;;;;;5077954;28;20187;-72
2023/01/25 06:55:42;;;;;;;7.60;5.83;;;9.90;99.90;;;;;;5082326;28;20232;-72
2023/01/25 06:58:17;;;;;;;7.57;5.23;;;9.90;99.90;;;;;;5078966;28;20194;-72
2023/01/25 07:00:43;;;;;;;5.90;4.97;;;10.00;99.90;;;;;;5078320;28;20201;-72
2023/01/25 07:03:15;;;;;;;6.73;5.23;;;10.10;99.90;;;;;;5082357;28;20182;-72
2023/01/25 07:05:44;;;;;;;7.10;5.40;;;10.10;99.90;;;;;;5072539;28;20685;-72
2023/01/25 07:08:17;;;;;;;7.97;5.23;;;10.10;99.90;;;;;;5071223;28;20723;-72
2023/01/25 07:10:43;;;;;;;7.07;5.80;;;10.30;99.90;;;;;;5086608;28;20845;-72
2023/01/25 07:13:12;;;;;;;7.50;5.23;;;10.30;99.90;;;;;;5079781;28;20182;-72
2023/01/25 07:15:38;;;;;;;6.97;5.20;;;10.40;99.90;;;;;;5075680;28;20210;-72
2023/01/25 07:18:13;;;;;;;7.23;4.57;;;10.40;99.90;;;;;;5079091;28;20194;-72
2023/01/25 07:20:41;;;;;;;6.43;5.13;;;10.40;99.90;;;;;;5070172;28;20264;-73
2023/01/25 07:23:14;;;;;;;6.07;5.17;;;10.40;99.90;;;;;;5081886;28;20305;-72
2023/01/25 07:25:48;;;;;;;6.80;5.33;;;10.50;99.90;;;;;;5092037;28;20201;-72
2023/01/25 07:28:16;;;;;;;8.03;5.13;;;10.60;99.90;;;;;;5086781;28;20192;-72
2023/01/25 07:30:51;;;;;;;8.07;5.23;;;10.70;99.90;;;;;;5083707;28;20212;-72
2023/01/25 07:33:18;;;;;;;6.87;4.63;;;10.70;99.90;;;;;;5077835;28;20256;-72
2023/01/25 07:35:49;;;;;;;7.23;4.93;;;10.80;99.90;;;;;;5072710;28;20328;-72
2023/01/25 07:38:19;;;;;;;7.03;4.67;;;10.90;99.90;;;;;;5077595;28;20240;-72
2023/01/25 07:40:56;;;;;;;8.87;5.33;;;10.90;99.90;;;;;;5079897;28;20251;-72
2023/01/25 07:43:24;;;;;;;7.23;5.50;;;10.90;99.90;;;;;;5075136;28;20303;-72
2023/01/25 07:45:51;;;;;;;9.47;4.90;;;10.90;99.90;;;;;;5076847;28;20190;-72
2023/01/25 07:48:19;;;;;;;9.47;4.90;;;10.90;99.90;;;;;;5081422;28;20194;-72
2023/01/25 07:51:10;;;;;;;6.97;5.00;;;10.90;99.90;;;;;;5090418;28;20193;-72
2023/01/25 07:53:45;;;;;;;6.37;4.77;;;11.00;99.90;;;;;;5074686;28;20190;-72
2023/01/25 07:56:11;;;;;;;7.73;5.03;;;11.20;99.90;;;;;;5087396;28;20232;-72
2023/01/25 07:58:41;;;;;;;8.13;5.13;;;11.20;99.90;;;;;;5081521;28;20190;-72
2023/01/25 08:01:10;;;;;;;6.00;4.70;;;11.30;99.90;;;;;;5076087;28;20178;-72
2023/01/25 08:03:37;;;;;;;9.73;5.13;;;11.50;99.90;;;;;;5086033;28;20543;-72
2023/01/25 08:06:04;;;;;;;8.00;5.00;;;11.50;99.90;;;;;;5084072;28;20555;-72
2023/01/25 08:08:33;;;;;;;5.90;4.50;;;11.50;99.90;;;;;;5079294;28;20244;-72
2023/01/25 08:11:30;;;;;;;10.33;4.67;;;11.60;99.90;;;;;;5079605;28;20182;-72
2023/01/25 08:13:57;;;;;;;6.30;4.60;;;11.80;99.90;;;;;;5059645;28;20187;-72
2023/01/25 08:16:26;;;;;;;6.30;4.67;;;12.20;99.90;;;;;;5079947;28;20186;-72
2023/01/25 08:18:57;;;;;;;8.77;4.70;;;12.10;99.90;;;;;;5080608;28;20194;-72
2023/01/25 08:21:28;;;;;;;7.13;4.57;;;12.00;99.90;;;;;;5078571;28;20186;-72
2023/01/25 08:23:57;;;;;;;8.20;4.53;;;12.00;99.90;;;;;;5081651;28;20925;-72
2023/01/25 08:26:24;;;;;;;9.63;4.80;;;12.00;99.90;;;;;;5074003;28;20190;-72
2023/01/25 08:28:52;;;;;;;6.93;4.30;;;12.00;99.90;;;;;;5079392;28;20197;-72
2023/01/25 08:31:26;;;;;;;7.13;4.40;;;12.10;99.90;;;;;;5080111;28;20190;-73
2023/01/25 08:33:54;;;;;;;5.57;4.13;;;12.10;99.90;;;;;;5081399;28;20617;-72
2023/01/25 08:36:23;;;;;;;7.77;4.50;;;12.20;99.90;;;;;;5080200;28;20194;-72
2023/01/25 08:38:56;;;;;;;7.27;4.60;;;12.40;99.90;;;;;;5088835;28;20334;-73
2023/01/25 08:41:25;;;;;;;5.97;4.23;;;12.60;99.90;;;;;;5076737;28;20777;-73
2023/01/25 08:43:54;;;;;;;8.33;4.67;;;13.00;99.90;;;;;;5078449;28;20219;-73
2023/01/25 08:46:25;;;;;;;7.00;4.33;;;12.90;99.90;;;;;;5076626;28;20178;-72
2023/01/25 08:48:55;;;;;;;8.10;4.60;;;12.70;99.90;;;;;;5079164;28;20186;-72
2023/01/25 08:51:25;;;;;;;5.70;4.60;;;12.60;99.90;;;;;;5082616;28;20216;-72
2023/01/25 08:53:53;;;;;;;6.40;4.50;;;12.50;99.90;;;;;;5077295;28;20627;-73
2023/01/25 08:56:23;;;;;;;6.93;4.50;;;12.50;99.90;;;;;;5075174;28;20241;-73
2023/01/25 08:58:51;;;;;;;7.77;4.93;;;12.50;99.90;;;;;;5076917;28;20526;-72
2023/01/25 09:01:20;;;;;;;7.07;5.03;;;12.50;99.90;;;;;;5087298;28;20194;-73
2023/01/25 09:03:49;;;;;;;7.17;5.20;;;12.50;99.90;;;;;;5079829;28;20194;-72
2023/01/25 09:06:19;;;;;;;10.27;5.20;;;12.50;99.90;;;;;;5078870;28;20181;-73
2023/01/25 09:08:52;;;;;;;9.20;5.57;;;12.50;99.90;;;;;;5069492;28;20272;-73
2023/01/25 09:11:21;;;;;;;8.47;5.57;;;12.60;99.90;;;;;;5082265;28;20186;-72
2023/01/25 09:13:49;;;;;;;7.53;5.83;;;12.70;99.90;;;;;;5086235;28;20182;-72
2023/01/25 09:16:27;;;;;;;12.07;5.87;;;12.80;99.90;;;;;;5089484;28;20290;-72
2023/01/25 09:18:55;;;;;;;7.40;5.70;;;13.00;99.90;;;;;;5080567;28;20186;-72
2023/01/25 09:21:25;;;;;;;7.67;5.83;;;13.00;99.90;;;;;;5077153;28;20182;-72
2023/01/25 09:23:53;;;;;;;9.00;6.60;;;13.00;99.90;;;;;;5075082;28;20186;-72
2023/01/25 09:26:20;;;;;;;10.80;6.70;;;13.00;99.90;;;;;;5083266;28;20183;-72
2023/01/25 09:28:52;;;;;;;10.67;6.67;;;13.10;99.90;;;;;;5080004;28;20192;-72
2023/01/25 09:31:20;;;;;;;11.63;8.27;;;13.20;99.90;;;;;;5074320;28;20183;-73
2023/01/25 09:33:51;;;;;;;10.50;7.50;;;13.30;99.90;;;;;;5086240;28;20220;-73
2023/01/25 09:36:20;;;;;;;9.87;7.07;;;13.50;99.90;;;;;;5082617;28;20228;-72
2023/01/25 09:38:47;;;;;;;12.03;7.37;;;13.50;99.90;;;;;;5074884;28;20193;-72
2023/01/25 09:41:17;;;;;;;12.63;7.27;;;13.50;99.90;;;;;;5084613;28;20244;-72
2023/01/25 09:44:19;;;;;;;15.57;7.60;;;13.60;99.90;;;;;;5083347;28;20181;-72
2023/01/25 09:46:52;;;;;;;9.17;7.00;;;13.80;99.90;;;;;;5093901;28;20186;-72
2023/01/25 09:50:00;;;;;;;10.33;7.47;;;13.80;99.90;;;;;;5083056;28;20242;-72
2023/01/25 09:53:36;;;;;;;13.17;8.10;;;13.90;99.90;;;;;;5075149;28;20186;-72
2023/01/25 09:56:26;;;;;;;17.37;9.50;;;13.90;99.90;;;;;;5085592;28;20205;-72
2023/01/25 09:59:16;;;;;;;9.87;8.30;;;13.90;99.90;;;;;;5077076;28;20708;-72
2023/01/25 10:02:02;;;;;;;13.60;8.87;;;13.90;99.90;;;;;;5079322;28;20217;-72
2023/01/25 10:04:57;;;;;;;17.10;10.07;;;13.90;99.90;;;;;;5075679;28;21861;-73
2023/01/25 10:08:13;;;;;;;19.00;13.30;;;13.90;99.90;;;;;;5081465;28;20665;-73
2023/01/25 10:10:46;;;;;;;21.97;15.17;;;14.00;99.90;;;;;;5096452;28;20214;-72
2023/01/25 10:13:30;;;;;;;21.53;14.47;;;14.20;99.90;;;;;;5085474;28;20193;-72
2023/01/25 10:16:48;;;;;;;27.13;17.53;;;14.10;99.90;;;;;;5078313;28;20225;-72
2023/01/25 10:19:45;;;;;;;22.87;15.07;;;14.20;99.90;;;;;;5065961;28;20198;-72
2023/01/25 10:22:29;;;;;;;18.97;11.73;;;14.30;99.90;;;;;;5069762;28;20183;-73
2023/01/25 10:25:42;;;;;;;13.33;9.53;;;14.20;99.90;;;;;;5081012;28;20265;-72
2023/01/25 10:28:28;;;;;;;12.17;8.87;;;14.30;99.90;;;;;;5082011;28;20713;-73
2023/01/25 10:31:10;;;;;;;15.90;10.53;;;14.40;99.90;;;;;;5077441;28;20178;-72
2023/01/25 10:33:44;;;;;;;14.17;10.23;;;14.50;99.90;;;;;;5083840;28;20274;-73
2023/01/25 10:36:28;;;;;;;17.17;11.03;;;14.50;99.90;;;;;;5080829;28;20220;-72
2023/01/25 10:38:58;;;;;;;17.27;10.83;;;14.60;99.90;;;;;;5080504;28;20200;-72
2023/01/25 10:41:44;;;;;;;13.87;10.17;;;14.70;99.90;;;;;;5080123;28;20186;-73
2023/01/25 10:44:27;;;;;;;14.80;9.67;;;14.80;99.90;;;;;;5082024;28;20194;-72
2023/01/25 10:47:12;;;;;;;13.40;9.03;;;14.80;99.90;;;;;;5081251;28;20185;-73
2023/01/25 10:50:00;;;;;;;12.17;8.60;;;14.90;99.90;;;;;;5078972;28;20545;-73
2023/01/25 10:52:40;;;;;;;12.60;8.20;;;15.10;99.90;;;;;;5077011;28;20810;-73
2023/01/25 10:55:30;;;;;;;10.60;8.20;;;15.20;99.90;;;;;;5072790;28;20202;-72
2023/01/25 10:57:57;;;;;;;13.27;8.90;;;15.40;99.90;;;;;;5080266;28;20816;-72
2023/01/25 11:00:40;;;;;;;13.53;8.97;;;15.70;99.90;;;;;;5084028;28;20187;-72
2023/01/25 11:03:34;;;;;;;16.50;9.13;;;15.70;99.90;;;;;;5079074;28;20205;-72
2023/01/25 11:06:02;;;;;;;18.37;9.57;;;15.40;99.90;;;;;;5074966;28;20932;-72
2023/01/25 11:08:45;;;;;;;16.43;10.37;;;15.30;99.90;;;;;;5076352;28;20183;-72
2023/01/25 11:11:31;;;;;;;14.37;8.90;;;15.30;99.90;;;;;;5084482;28;20375;-73
2023/01/25 11:13:57;;;;;;;14.73;8.47;;;15.40;99.90;;;;;;5081132;28;20214;-73
2023/01/25 11:16:40;;;;;;;9.90;7.40;;;15.40;99.90;;;;;;5081808;28;20228;-72
2023/01/25 11:19:32;;;;;;;9.87;6.93;;;15.60;99.90;;;;;;5096448;27;20765;-72
2023/01/25 11:22:18;;;;;;;10.27;7.17;;;15.90;99.90;;;;;;5074124;28;20186;-72
2023/01/25 11:24:49;;;;;;;7.63;6.30;;;15.90;99.90;;;;;;5077192;28;20194;-72
2023/01/25 11:27:24;;;;;;;11.27;7.23;;;16.10;99.90;;;;;;5088017;28;20186;-72
2023/01/25 11:30:22;;;;;;;8.77;6.43;;;16.20;99.90;;;;;;5082948;28;20213;-72
2023/01/25 11:32:51;;;;;;;11.03;6.73;;;16.20;99.90;;;;;;5084138;28;20736;-72
2023/01/25 11:35:31;;;;;;;9.60;6.00;;;16.20;99.90;;;;;;5079758;28;20350;-72
2023/01/25 11:38:23;;;;;;;9.97;5.70;;;16.00;99.90;;;;;;5082166;28;20627;-73
2023/01/25 11:41:24;;;;;;;9.57;6.23;;;15.90;99.90;;;;;;5076647;28;20195;-72
2023/01/25 11:44:38;;;;;;;10.03;6.10;;;15.80;99.90;;;;;;5071561;28;20209;-72
2023/01/25 11:47:43;;;;;;;9.47;6.40;;;15.80;99.90;;;;;;5082566;28;20787;-73
2023/01/25 11:50:37;;;;;;;10.83;6.60;;;15.90;99.90;;;;;;5085305;28;20183;-73
2023/01/25 11:53:37;;;;;;;11.20;6.57;;;16.00;99.90;;;;;;5080733;28;20272;-73
2023/01/25 11:56:30;;;;;;;15.20;6.30;;;16.00;99.90;;;;;;5077887;28;20217;-73
2023/01/25 11:59:19;;;;;;;10.23;6.43;;;16.10;99.90;;;;;;5086359;28;20202;-73
2023/01/25 12:02:47;;;;;;;;;;;;;;;;;;;;;
2023/01/25 12:05:45;;;;;;;9.53;5.63;;;16.10;99.90;;;;;;5072935;28;20554;-73
2023/01/25 12:08:56;;;;;;;8.50;6.20;;;16.10;99.90;;;;;;5089752;28;20744;-73
2023/01/25 12:12:09;;;;;;;9.73;6.50;;;16.10;99.90;;;;;;5078590;28;20600;-73
2023/01/25 12:15:23;;;;;;;7.80;6.30;;;16.10;99.90;;;;;;5080515;28;20214;-73
2023/01/25 12:18:47;;;;;;;8.67;6.50;;;16.10;99.90;;;;;;5079918;28;20190;-73
2023/01/25 12:21:51;;;;;;;11.67;6.40;;;16.10;99.90;;;;;;5060947;28;20252;-73
2023/01/25 12:24:57;;;;;;;11.07;6.87;;;16.10;99.90;;;;;;5084945;28;20681;-73
2023/01/25 12:28:19;;;;;;;14.43;6.70;;;16.10;99.90;;;;;;5086174;28;20201;-73
2023/01/25 12:31:07;;;;;;;9.10;6.70;;;16.10;99.90;;;;;;5078505;28;20311;-73
2023/01/25 12:33:49;;;;;;;9.80;6.10;;;16.10;99.90;;;;;;5079427;28;20240;-73
2023/01/25 12:57:01;;;;;;;8.43;6.43;;;15.90;99.90;;;;;;5091156;27;20536;-71
2023/01/25 13:00:03;;;;;;;17.43;6.40;;;15.80;99.90;;;;;;5059378;28;20202;-71
2023/01/25 13:03:05;;;;;;;9.67;6.90;;;15.80;99.90;;;;;;5034396;28;20197;-71
2023/01/25 13:06:08;;;;;;;10.83;6.53;;;15.70;99.90;;;;;;5072421;28;20195;-71
2023/01/25 13:08:39;;;;;;;9.17;6.63;;;15.70;99.90;;;;;;5066703;28;20178;-71
2023/01/25 13:11:20;;;;;;;9.80;6.27;;;15.60;99.90;;;;;;5072020;28;20204;-71
2023/01/25 13:13:48;;;;;;;9.30;7.03;;;15.60;99.90;;;;;;5074541;28;20707;-71
2023/01/25 13:16:50;;;;;;;10.00;6.13;;;15.50;99.90;;;;;;5073740;28;20766;-71
2023/01/25 13:19:35;;;;;;;7.80;5.90;;;15.50;99.90;;;;;;5067764;28;20245;-73
2023/01/25 13:22:02;;;;;;;9.17;6.37;;;15.50;99.90;;;;;;5069700;28;20832;-73
2023/01/25 13:24:34;;;;;;;11.73;6.47;;;15.40;99.90;;;;;;5078822;28;20207;-73
2023/01/25 13:27:35;;;;;;;10.57;6.97;;;15.40;99.90;;;;;;5070620;28;20239;-73
2023/01/25 13:30:33;;;;;;;8.30;6.10;;;15.30;99.90;;;;;;5056133;28;20209;-73
2023/01/25 13:33:06;;;;;;;9.10;6.40;;;15.30;99.90;;;;;;5076497;28;20229;-73
2023/01/25 13:35:37;;;;;;;10.67;6.40;;;15.20;99.90;;;;;;5062291;28;20594;-73
2023/01/25 13:38:36;;;;;;;9.67;6.43;;;15.20;99.90;;;;;;5077994;28;20201;-73
2023/01/25 13:41:25;;;;;;;8.23;6.63;;;15.10;99.90;;;;;;5093970;28;21106;-73
2023/01/25 13:44:20;;;;;;;8.97;6.40;;;15.00;99.90;;;;;;5080587;28;20194;-73
2023/01/25 13:46:46;;;;;;;8.87;6.70;;;14.90;99.90;;;;;;5064877;28;20190;-73
2023/01/25 13:49:47;;;;;;;11.87;6.83;;;14.90;99.90;;;;;;5064369;28;20201;-73
2023/01/25 13:52:29;;;;;;;9.33;6.90;;;14.90;99.90;;;;;;5089289;28;20882;-73
2023/01/25 13:55:00;;;;;;;7.67;5.90;;;14.80;99.90;;;;;;5071667;28;20831;-73
2023/01/25 13:57:31;;;;;;;8.73;6.63;;;14.80;99.90;;;;;;5041950;28;20207;-73
2023/01/25 14:00:13;;;;;;;9.57;6.30;;;14.70;99.90;;;;;;5038126;28;20202;-73
2023/01/25 14:02:44;;;;;;;10.20;6.33;;;14.70;99.90;;;;;;5060696;28;20195;-73
2023/01/25 14:05:37;;;;;;;;;;;;;;;;;;;;;
2023/01/25 14:08:12;;;;;;;9.93;6.77;;;14.60;99.90;;;;;;5054944;28;20311;-73